createdAt,value
2019-05-02T12:32:37.000Z,13.1
2019-05-02T12:37:49.000Z,16.9
2019-05-02T12:43:02.000Z,16
2019-05-02T12:48:14.000Z,14.5
2019-05-02T12:53:26.000Z,14.4
2019-05-02T12:58:39.000Z,15.4
2019-05-02T13:03:51.000Z,17.2
2019-05-02T13:09:03.000Z,16.2
2019-05-02T13:14:15.000Z,14.8
2019-05-02T13:19:28.000Z,13.9
2019-05-02T13:24:40.000Z,12.9
2019-05-02T13:35:05.000Z,13.4
2019-05-02T13:40:17.000Z,12.7
2019-05-02T13:45:29.000Z,9.2
2019-05-02T13:50:42.000Z,8.1
2019-05-02T13:55:54.000Z,7.4
2019-05-02T14:01:07.000Z,6.4
2019-05-02T14:06:19.000Z,6
2019-05-02T14:11:31.000Z,5.6
2019-05-02T14:16:43.000Z,5
2019-05-02T14:21:55.000Z,4.5
2019-05-02T14:27:08.000Z,4.1
2019-05-02T14:32:20.000Z,4.1
2019-05-02T14:37:32.000Z,4.1
2019-05-02T14:42:45.000Z,4.1
2019-05-02T14:47:57.000Z,4.4
2019-05-02T14:53:09.000Z,4.1
2019-05-02T14:58:22.000Z,3.8
2019-05-02T15:08:46.000Z,3.7
2019-05-02T15:13:58.000Z,3.7
2019-05-02T15:19:11.000Z,4.3
2019-05-02T15:24:23.000Z,3.9
2019-05-02T15:29:36.000Z,3.4
2019-05-02T15:34:48.000Z,3.5
2019-05-02T15:40:00.000Z,3.3
2019-05-02T15:45:12.000Z,3
2019-05-02T15:50:25.000Z,3.3
2019-05-02T15:55:37.000Z,3.2
2019-05-02T16:00:50.000Z,2.9
2019-05-02T16:06:02.000Z,3
2019-05-02T16:11:14.000Z,3.3
2019-05-02T16:16:26.000Z,3.1
2019-05-02T16:21:38.000Z,3.2
2019-05-02T16:26:51.000Z,2.8
2019-05-02T16:32:03.000Z,3.1
2019-05-02T16:37:16.000Z,2.7
2019-05-02T16:42:28.000Z,3
2019-05-02T16:47:40.000Z,2.8
2019-05-02T16:52:53.000Z,3.3
2019-05-02T16:58:05.000Z,2.6
2019-05-02T17:03:17.000Z,2.7
2019-05-02T17:08:30.000Z,2.6
2019-05-02T17:13:42.000Z,2.5
2019-05-02T17:18:54.000Z,1.9
2019-05-02T17:24:07.000Z,2.1
2019-05-02T17:29:19.000Z,2.5
2019-05-02T17:34:31.000Z,2
2019-05-02T17:39:44.000Z,2.1
2019-05-02T17:44:56.000Z,2
2019-05-02T17:50:08.000Z,2.2
2019-05-02T17:55:21.000Z,2.2
2019-05-02T18:05:46.000Z,1.8
2019-05-02T18:10:58.000Z,1.9
2019-05-02T18:16:10.000Z,1.9
2019-05-02T18:21:22.000Z,1.8
2019-05-02T18:26:34.000Z,1.8
2019-05-02T18:31:47.000Z,1.7
2019-05-02T18:36:59.000Z,1.5
2019-05-02T18:42:12.000Z,1.9
2019-05-02T18:47:24.000Z,1.5
2019-05-02T18:52:36.000Z,1.6
2019-05-02T18:57:49.000Z,1.7
2019-05-02T19:03:01.000Z,1.6
2019-05-02T19:08:13.000Z,1.5
2019-05-02T19:13:25.000Z,1.6
2019-05-02T19:18:38.000Z,1.8
2019-05-02T19:23:50.000Z,1.8
2019-05-02T19:29:03.000Z,1.6
2019-05-02T19:34:15.000Z,1.9
2019-05-02T19:39:27.000Z,1.8
2019-05-02T19:44:39.000Z,2.1
2019-05-02T19:49:52.000Z,2.1
2019-05-02T19:55:04.000Z,2.1
2019-05-02T20:00:17.000Z,2.2
2019-05-02T20:05:29.000Z,2
2019-05-02T20:10:41.000Z,2
2019-05-02T20:15:53.000Z,2.1
2019-05-02T20:21:05.000Z,2.1
2019-05-02T20:26:18.000Z,2.3
2019-05-02T20:31:30.000Z,2.1
2019-05-02T20:36:43.000Z,2.3
2019-05-02T20:41:55.000Z,2.1
2019-05-02T20:47:07.000Z,2.2
2019-05-02T20:52:19.000Z,1.8
2019-05-02T20:57:32.000Z,2.3
2019-05-02T21:02:44.000Z,1.8
2019-05-02T21:07:57.000Z,2
2019-05-02T21:13:09.000Z,2.1
2019-05-02T21:18:21.000Z,1.8
2019-05-02T21:23:33.000Z,1.9
2019-05-02T21:28:45.000Z,1.9
2019-05-02T21:33:58.000Z,1.9
2019-05-02T21:39:10.000Z,1.6
2019-05-02T21:44:23.000Z,1.7
2019-05-02T21:49:35.000Z,1.5
2019-05-02T21:54:47.000Z,1.7
2019-05-02T22:00:00.000Z,1.8
2019-05-02T22:05:12.000Z,1.4
2019-05-02T22:10:24.000Z,1.3
2019-05-02T22:15:37.000Z,1.5
2019-05-02T22:20:49.000Z,1.2
2019-05-02T22:26:01.000Z,1.3
2019-05-02T22:31:14.000Z,1.1
2019-05-02T22:36:26.000Z,1.4
2019-05-02T22:46:51.000Z,1.3
2019-05-02T22:52:03.000Z,1.3
2019-05-02T22:57:15.000Z,1.2
2019-05-02T23:02:28.000Z,1.3
2019-05-02T23:07:40.000Z,1.2
2019-05-02T23:12:52.000Z,1.3
2019-05-02T23:18:04.000Z,1
2019-05-02T23:23:17.000Z,1.2
2019-05-02T23:28:29.000Z,1.3
2019-05-02T23:33:42.000Z,1.2
2019-05-02T23:38:54.000Z,1.2
2019-05-02T23:49:19.000Z,1
2019-05-02T23:54:31.000Z,1.1
2019-05-02T23:59:43.000Z,1.2
